Time;durP1;ratioP1;P1;durP2;ratioP2;P2;SDS_P1;SDS_P2;PMS_P1;PMS_P2;Temp;Humidity;BMP_temperature;BMP_pressure;BME280_temperature;BME280_humidity;BME280_pressure;Samples;Min_cycle;Max_cycle;Signal;HPM_P1;HPM_P2
2023/02/06 00:01:24;;;;;;;38.63;17.48;;;;;;;1.45;100.00;100906.63;5036755;28;20022;-75
2023/02/06 00:03:50;;;;;;;36.15;16.80;;;;;;;1.62;100.00;100915.41;5052319;28;20024;-77
2023/02/06 00:06:15;;;;;;;39.03;17.60;;;;;;;1.52;100.00;100905.31;5037082;28;20032;-73
2023/02/06 00:08:41;;;;;;;41.00;17.63;;;;;;;1.42;100.00;100895.31;5032119;28;20039;-75
2023/02/06 00:11:10;;;;;;;36.75;17.10;;;;;;;1.40;100.00;100900.72;5050932;28;20744;-74
2023/02/06 00:13:36;;;;;;;38.17;17.35;;;;;;;1.53;100.00;100909.69;5054887;28;20020;-74
2023/02/06 00:16:02;;;;;;;38.95;18.77;;;;;;;1.46;100.00;100895.00;5046902;28;20033;-77
2023/02/06 00:18:27;;;;;;;33.70;16.45;;;;;;;1.48;100.00;100895.78;5041012;28;20024;-74
2023/02/06 00:20:53;;;;;;;38.45;17.73;;;;;;;1.50;100.00;100893.03;5049018;28;20432;-76
2023/02/06 00:23:18;;;;;;;37.25;17.50;;;;;;;1.57;100.00;100901.50;5057447;28;20474;-77
2023/02/06 00:25:44;;;;;;;36.35;16.92;;;;;;;1.58;100.00;100904.09;5027557;28;20033;-75
2023/02/06 00:28:09;;;;;;;34.85;16.55;;;;;;;1.45;100.00;100906.63;5039516;28;20133;-76
2023/02/06 00:30:35;;;;;;;41.95;18.70;;;;;;;1.40;100.00;100891.88;5034591;28;20025;-75
2023/02/06 00:33:00;;;;;;;38.10;17.35;;;;;;;1.44;100.00;100890.72;5039830;28;20524;-76
2023/02/06 00:35:25;;;;;;;35.83;17.02;;;;;;;1.58;100.00;100912.09;5055983;28;20064;-74
2023/02/06 00:37:51;;;;;;;39.15;17.67;;;;;;;1.51;100.00;100906.25;5028699;28;20030;-74
2023/02/06 00:40:16;;;;;;;39.55;18.02;;;;;;;1.38;100.00;100888.44;5014225;28;20025;-77
2023/02/06 00:42:42;;;;;;;41.40;18.33;;;;;;;1.49;100.00;100900.19;5055814;28;20028;-76
2023/02/06 00:45:08;;;;;;;31.17;17.58;;;;;;;1.51;100.00;100898.25;5057918;28;20037;-76
2023/02/06 00:47:34;;;;;;;37.13;18.55;;;;;;;1.53;100.00;100901.69;5037825;28;20088;-73
2023/02/06 00:49:59;;;;;;;42.22;18.65;;;;;;;1.48;100.00;100900.25;5036484;28;20024;-76
2023/02/06 00:52:25;;;;;;;36.13;18.00;;;;;;;1.51;100.00;100887.59;5072322;28;20069;-74
2023/02/06 00:54:50;;;;;;;34.83;17.67;;;;;;;1.65;100.00;100899.22;5035304;28;20100;-76
2023/02/06 00:57:15;;;;;;;35.83;17.45;;;;;;;1.63;100.00;100895.81;5034740;28;20033;-76
2023/02/06 00:59:40;;;;;;;38.72;17.83;;;;;;;1.65;100.00;100900.09;5034315;28;20033;-78
2023/02/06 01:02:06;;;;;;;40.40;18.55;;;;;;;1.63;100.00;100911.81;5061886;28;20043;-75
2023/02/06 01:04:31;;;;;;;41.97;17.40;;;;;;;1.61;100.00;100909.22;5052591;28;20021;-75
2023/02/06 01:06:56;;;;;;;37.63;18.52;;;;;;;1.54;100.00;100905.22;5031732;28;20486;-76
2023/02/06 01:09:22;;;;;;;40.80;17.77;;;;;;;1.54;100.00;100914.06;5029954;28;20110;-76
2023/02/06 01:11:47;;;;;;;41.05;17.85;;;;;;;1.57;100.00;100930.84;5031051;28;20021;-74
2023/02/06 01:14:12;;;;;;;37.53;18.85;;;;;;;1.50;100.00;100906.38;5054177;28;20481;-76
2023/02/06 01:16:38;;;;;;;37.50;17.40;;;;;;;1.59;100.00;100915.59;5033463;28;20028;-75
2023/02/06 01:19:03;;;;;;;39.22;17.30;;;;;;;1.49;100.00;100912.63;5033290;28;20056;-74
2023/02/06 01:21:28;;;;;;;37.28;18.02;;;;;;;1.51;100.00;100916.94;5048840;28;20364;-74
2023/02/06 01:23:54;;;;;;;41.03;18.38;;;;;;;1.37;100.00;100910.72;5033028;28;20474;-75
2023/02/06 01:26:23;;;;;;;36.08;18.15;;;;;;;1.31;100.00;100911.97;5038542;28;20079;-76
2023/02/06 01:28:49;;;;;;;35.42;17.13;;;;;;;1.39;100.00;100916.81;5013574;28;20550;-76
2023/02/06 01:31:19;;;;;;;37.55;17.88;;;;;;;1.34;100.00;100918.88;5022677;28;20125;-76
2023/02/06 01:33:46;;;;;;;34.92;17.67;;;;;;;1.25;100.00;100897.16;5051922;28;20691;-76
2023/02/06 01:36:13;;;;;;;36.70;17.92;;;;;;;1.25;100.00;100909.66;5031306;28;20025;-76
2023/02/06 01:38:39;;;;;;;39.08;18.98;;;;;;;1.23;100.00;100901.75;5031055;28;20691;-75
2023/02/06 01:41:06;;;;;;;34.63;17.77;;;;;;;1.12;100.00;100890.00;5038061;28;20775;-76
2023/02/06 01:43:35;;;;;;;40.05;19.45;;;;;;;1.13;100.00;100889.03;5027488;28;20426;-76
2023/02/06 01:46:01;;;;;;;40.05;18.52;;;;;;;1.17;100.00;100901.25;5030529;28;20467;-76
2023/02/06 01:48:42;;;;;;;36.55;18.00;;;;;;;1.16;100.00;100903.06;5054659;28;20075;-77
2023/02/06 01:51:13;;;;;;;41.10;18.42;;;;;;;1.13;100.00;100911.25;5026596;28;20022;-74
2023/02/06 01:53:41;;;;;;;39.58;18.45;;;;;;;1.09;100.00;100894.56;5048440;28;20029;-74
2023/02/06 01:56:07;;;;;;;42.38;18.55;;;;;;;1.20;100.00;100906.41;5014293;28;20479;-78
2023/02/06 01:58:36;;;;;;;36.03;17.33;;;;;;;1.19;100.00;100899.34;5036741;28;20043;-74
2023/02/06 02:01:02;;;;;;;34.00;18.35;;;;;;;1.32;100.00;100908.34;5063599;28;20056;-75
2023/02/06 02:03:29;;;;;;;37.15;17.45;;;;;;;1.40;100.00;100911.41;5059949;28;20025;-76
2023/02/06 02:06:00;;;;;;;36.45;18.30;;;;;;;1.32;100.00;100897.66;5047084;28;20563;-76
2023/02/06 02:08:32;;;;;;;36.83;18.10;;;;;;;1.28;100.00;100891.69;5078712;28;20020;-76
2023/02/06 02:11:00;;;;;;;38.63;18.00;;;;;;;1.24;100.00;100897.28;5051320;28;20025;-75
2023/02/06 02:13:25;;;;;;;38.65;18.48;;;;;;;1.09;100.00;100899.88;5044837;28;20025;-76
2023/02/06 02:16:16;;;;;;;38.85;18.42;;;;;;;1.11;100.00;100905.16;5048235;28;20024;-78
2023/02/06 02:19:15;;;;;;;39.58;18.00;;;;;;;1.09;100.00;100896.38;5043870;28;20097;-74
2023/02/06 02:21:46;;;;;;;41.15;19.23;;;;;;;1.14;100.00;100914.78;5047243;28;20033;-75
2023/02/06 02:24:24;;;;;;;40.15;18.75;;;;;;;1.09;100.00;100913.22;5021800;28;20025;-76
2023/02/06 02:26:49;;;;;;;36.72;18.13;;;;;;;1.13;100.00;100905.03;5039515;28;20037;-77
2023/02/06 02:29:33;;;;;;;37.03;19.05;;;;;;;1.08;100.00;100897.34;5031992;28;20025;-76
2023/02/06 02:32:11;;;;;;;39.92;18.25;;;;;;;1.05;100.00;100903.72;5050537;28;20109;-78
2023/02/06 02:34:51;;;;;;;36.97;18.27;;;;;;;1.04;100.00;100899.31;5071049;28;20021;-77
2023/02/06 02:37:34;;;;;;;37.88;17.05;;;;;;;1.07;100.00;100895.59;5086216;28;20013;-77
2023/02/06 02:40:11;;;;;;;38.53;18.48;;;;;;;0.97;100.00;100887.31;5062082;28;20028;-79
2023/02/06 02:42:45;;;;;;;36.25;18.30;;;;;;;0.92;100.00;100889.38;5077622;28;20096;-78
2023/02/06 02:45:22;;;;;;;35.63;17.70;;;;;;;0.85;100.00;100877.38;5056227;28;20070;-77
2023/02/06 02:47:53;;;;;;;34.83;17.85;;;;;;;0.81;100.00;100890.03;5062172;28;20105;-78
2023/02/06 02:50:19;;;;;;;38.15;18.02;;;;;;;0.83;100.00;100905.91;5080375;28;20044;-79
2023/02/06 02:52:45;;;;;;;35.25;17.77;;;;;;;0.81;100.00;100891.81;5083851;28;20032;-78
2023/02/06 02:55:22;;;;;;;36.08;17.88;;;;;;;0.70;100.00;100878.25;5072765;28;20066;-77
2023/02/06 02:57:53;;;;;;;37.50;18.98;;;;;;;0.75;100.00;100902.81;5054293;28;20032;-76
2023/02/06 03:00:21;;;;;;;42.65;17.90;;;;;;;0.63;100.00;100888.44;5047093;28;20069;-75
2023/02/06 03:02:49;;;;;;;41.70;19.15;;;;;;;0.59;100.00;100881.53;5061046;28;20100;-75
2023/02/06 03:05:20;;;;;;;36.65;18.15;;;;;;;0.67;100.00;100902.41;5058362;28;20039;-75
2023/02/06 03:08:23;;;;;;;35.97;17.20;;;;;;;0.65;100.00;100906.03;5041181;28;20037;-77
2023/02/06 03:11:12;;;;;;;45.10;18.45;;;;;;;0.63;100.00;100905.25;5044458;28;20032;-79
2023/02/06 03:13:42;;;;;;;;;;;;;;;0.57;100.00;100905.59;5058082;28;20037;-78
2023/02/06 03:16:28;;;;;;;35.92;17.42;;;;;;;0.38;100.00;100902.28;5053635;28;19912;-77
2023/02/06 03:19:11;;;;;;;33.50;16.85;;;;;;;0.12;100.00;100887.75;5061563;28;20021;-79
2023/02/06 03:21:40;;;;;;;38.00;18.00;;;;;;;0.15;100.00;100900.88;5052520;28;20029;-79
2023/02/06 03:24:15;;;;;;;41.07;18.33;;;;;;;-0.02;100.00;100901.84;5057087;28;20020;-77
2023/02/06 03:26:43;;;;;;;38.15;18.88;;;;;;;-0.14;100.00;100891.84;5076410;28;20396;-79
2023/02/06 03:29:11;;;;;;;34.95;17.38;;;;;;;-0.23;100.00;100886.09;5065331;28;20020;-76
2023/02/06 03:31:43;;;;;;;39.40;17.63;;;;;;;-0.15;100.00;100887.47;5049225;28;20085;-76
2023/02/06 03:34:13;;;;;;;40.40;17.35;;;;;;;-0.07;100.00;100910.06;5047601;28;20033;-77
2023/02/06 03:36:39;;;;;;;37.08;18.83;;;;;;;-0.06;100.00;100894.94;5046942;28;20672;-75
2023/02/06 03:39:04;;;;;;;39.05;18.15;;;;;;;-0.02;100.00;100892.03;5038883;28;20032;-77
2023/02/06 03:41:34;;;;;;;42.55;18.98;;;;;;;0.07;100.00;100906.63;5063249;28;20034;-78
2023/02/06 03:44:01;;;;;;;42.83;19.30;;;;;;;0.03;100.00;100902.44;5050478;28;20037;-76
2023/02/06 03:46:31;;;;;;;37.63;18.88;;;;;;;0.07;100.00;100906.63;5016314;28;20364;-74
2023/02/06 03:49:00;;;;;;;41.80;19.55;;;;;;;0.17;100.00;100912.31;5040799;28;20024;-76
2023/02/06 03:51:34;;;;;;;39.38;19.25;;;;;;;0.15;100.00;100903.53;5045791;28;20017;-76
2023/02/06 03:54:03;;;;;;;39.58;18.55;;;;;;;0.14;100.00;100897.38;5053139;28;20028;-77
2023/02/06 03:56:35;;;;;;;43.75;18.80;;;;;;;0.24;100.00;100894.19;5060988;28;20021;-77
2023/02/06 03:59:01;;;;;;;39.58;19.77;;;;;;;0.31;100.00;100908.88;5047767;28;20025;-76
2023/02/06 04:01:26;;;;;;;42.75;19.88;;;;;;;0.22;100.00;100905.78;5038974;28;20540;-77
2023/02/06 04:03:52;;;;;;;39.45;19.40;;;;;;;0.36;100.00;100915.66;5068924;28;20020;-77
2023/02/06 04:06:18;;;;;;;39.60;19.73;;;;;;;0.29;100.00;100911.66;5082155;28;20063;-77
2023/02/06 04:08:43;;;;;;;42.95;19.85;;;;;;;0.30;100.00;100918.66;5041262;28;20068;-77
2023/02/06 04:11:08;;;;;;;39.70;18.52;;;;;;;0.29;100.00;100911.66;5054336;28;20029;-78
2023/02/06 04:13:33;;;;;;;42.13;18.48;;;;;;;0.33;100.00;100907.00;5039998;28;20394;-78
2023/02/06 04:16:00;;;;;;;43.35;20.60;;;;;;;0.47;100.00;100920.38;5048694;28;20029;-76
2023/02/06 04:18:25;;;;;;;38.58;18.65;;;;;;;0.38;100.00;100902.28;5037344;28;20026;-76
2023/02/06 04:20:51;;;;;;;43.35;20.67;;;;;;;0.44;100.00;100912.56;5014395;28;20026;-77
2023/02/06 04:23:18;;;;;;;39.17;19.60;;;;;;;0.53;100.00;100913.88;5038177;28;20023;-77
2023/02/06 04:25:43;;;;;;;39.22;20.02;;;;;;;0.54;100.00;100905.78;5051666;28;20100;-76
2023/02/06 04:28:09;;;;;;;40.67;18.58;;;;;;;0.53;100.00;100903.22;5046127;28;20462;-76
2023/02/06 04:30:34;;;;;;;39.25;19.73;;;;;;;0.47;100.00;100891.06;5015955;28;20029;-76
2023/02/06 04:32:59;;;;;;;40.00;18.92;;;;;;;0.67;100.00;100891.75;5018017;28;20037;-76
2023/02/06 04:35:25;;;;;;;42.35;18.40;;;;;;;0.58;100.00;100879.84;5052017;28;20722;-73
2023/02/06 04:37:50;;;;;;;36.60;18.85;;;;;;;0.59;100.00;100893.06;5038757;28;20016;-74
2023/02/06 04:40:16;;;;;;;40.03;19.00;;;;;;;0.59;100.00;100898.38;5022214;28;21712;-75
2023/02/06 04:42:41;;;;;;;38.33;18.17;;;;;;;0.59;100.00;100897.53;5030361;28;20833;-76
2023/02/06 04:45:07;;;;;;;40.20;18.90;;;;;;;0.54;100.00;100888.94;5048146;28;20055;-76
2023/02/06 04:47:32;;;;;;;43.22;20.13;;;;;;;0.55;100.00;100902.19;5036590;28;20023;-76
2023/02/06 04:49:57;;;;;;;37.55;18.80;;;;;;;0.57;100.00;100900.25;5017644;28;20360;-75
2023/02/06 04:52:23;;;;;;;38.92;18.67;;;;;;;0.41;100.00;100878.13;5053484;28;20056;-75
2023/02/06 04:54:48;;;;;;;45.15;19.05;;;;;;;0.51;100.00;100897.09;5062165;28;20035;-74
2023/02/06 04:57:13;;;;;;;36.10;17.90;;;;;;;0.58;100.00;100904.66;5049816;28;20108;-75
2023/02/06 04:59:39;;;;;;;43.38;19.58;;;;;;;0.60;100.00;100876.13;5036223;28;20025;-76
2023/02/06 05:02:04;;;;;;;38.03;18.58;;;;;;;0.77;100.00;100893.81;5052123;28;20018;-77
2023/02/06 05:04:29;;;;;;;41.85;19.27;;;;;;;0.72;100.00;100897.69;5016812;28;20029;-74
2023/02/06 05:06:55;;;;;;;38.25;18.10;;;;;;;0.74;100.00;100901.13;5032405;28;20025;-73
2023/02/06 05:09:20;;;;;;;38.10;18.63;;;;;;;0.64;100.00;100896.31;5025242;28;20483;-73
2023/02/06 05:11:45;;;;;;;41.17;19.75;;;;;;;0.70;100.00;100911.06;5034897;28;20029;-75
2023/02/06 05:14:11;;;;;;;38.42;19.33;;;;;;;0.65;100.00;100902.50;5053372;28;20084;-73
2023/02/06 05:16:36;;;;;;;40.00;19.00;;;;;;;0.65;100.00;100903.38;5050514;28;20020;-75
2023/02/06 05:19:01;;;;;;;34.45;17.55;;;;;;;0.61;100.00;100899.16;5035523;28;20175;-75
2023/02/06 05:21:27;;;;;;;44.40;19.55;;;;;;;0.61;100.00;100920.47;5039019;28;20157;-77
2023/02/06 05:23:53;;;;;;;40.72;18.48;;;;;;;0.53;100.00;100906.72;5061301;28;20099;-76
2023/02/06 05:26:18;;;;;;;35.33;17.90;;;;;;;0.63;100.00;100918.59;5033855;28;20486;-77
2023/02/06 05:28:44;;;;;;;38.88;19.73;;;;;;;0.61;100.00;100916.94;5033371;28;20197;-76
2023/02/06 05:31:09;;;;;;;38.20;18.33;;;;;;;0.56;100.00;100911.88;5032654;28;20541;-77
2023/02/06 05:33:35;;;;;;;37.28;17.55;;;;;;;0.37;100.00;100872.13;5030406;28;20411;-78
2023/02/06 05:36:05;;;;;;;31.08;15.73;;;;;;;0.67;100.00;100910.41;5046594;28;20033;-78
2023/02/06 05:38:31;;;;;;;26.85;13.35;;;;;;;0.54;100.00;100881.81;5052228;28;20029;-78
2023/02/06 05:40:56;;;;;;;27.48;12.95;;;;;;;0.75;100.00;100877.03;5024635;28;20028;-75
2023/02/06 05:43:22;;;;;;;25.70;12.30;;;;;;;0.73;100.00;100878.06;5025003;28;20025;-73
2023/02/06 05:45:47;;;;;;;26.85;13.00;;;;;;;0.80;100.00;100896.28;5015784;28;20036;-75
2023/02/06 05:48:13;;;;;;;23.73;12.25;;;;;;;0.75;100.00;100870.84;5013442;28;20434;-76
2023/02/06 05:50:38;;;;;;;12.38;6.28;;;;;;;0.67;100.00;100851.81;5030449;28;20029;-76
2023/02/06 05:53:03;;;;;;;15.23;7.72;;;;;;;0.93;100.00;100884.91;5042637;28;20024;-76
2023/02/06 05:55:28;;;;;;;17.27;7.88;;;;;;;0.90;100.00;100869.09;5067235;28;20056;-77
2023/02/06 05:57:54;;;;;;;14.63;8.50;;;;;;;0.96;100.00;100869.59;5050296;28;20033;-77
2023/02/06 06:00:19;;;;;;;16.42;8.27;;;;;;;0.93;100.00;100869.78;5021071;28;20017;-77
2023/02/06 06:02:45;;;;;;;12.18;5.35;;;;;;;0.97;100.00;100875.75;5049753;28;20036;-77
2023/02/06 06:05:10;;;;;;;15.02;6.78;;;;;;;1.01;100.00;100870.16;5033801;28;20019;-77
2023/02/06 06:07:35;;;;;;;14.15;6.80;;;;;;;0.85;100.00;100850.72;5054780;28;20090;-77
2023/02/06 06:10:01;;;;;;;15.15;8.38;;;;;;;1.10;100.00;100879.41;5044027;28;20034;-78
2023/02/06 06:12:26;;;;;;;25.60;11.13;;;;;;;0.94;100.00;100876.81;5022916;28;20022;-80
2023/02/06 06:14:52;;;;;;;25.50;12.27;;;;;;;0.96;100.00;100896.25;5049228;22;20037;-62
2023/02/06 06:17:17;;;;;;;24.20;11.75;;;;;;;0.92;100.00;100894.72;5055730;28;20037;-62
2023/02/06 06:19:43;;;;;;;24.70;11.25;;;;;;;0.86;100.00;100895.94;5063301;28;20039;-63
2023/02/06 06:22:10;;;;;;;23.73;10.20;;;;;;;0.83;100.00;100889.91;5044152;28;20022;-62
2023/02/06 06:24:35;;;;;;;20.10;10.25;;;;;;;0.84;100.00;100895.16;5033816;28;20380;-63
2023/02/06 06:27:02;;;;;;;21.08;11.07;;;;;;;0.88;100.00;100910.00;5038902;28;20104;-62
2023/02/06 06:29:28;;;;;;;25.23;11.50;;;;;;;0.92;100.00;100932.03;5020980;28;20055;-63
2023/02/06 06:31:54;;;;;;;23.30;12.27;;;;;;;0.94;100.00;100926.59;5028670;28;20544;-63
2023/02/06 06:34:20;;;;;;;28.02;13.18;;;;;;;0.91;100.00;100924.09;5045361;28;20063;-63
2023/02/06 06:36:46;;;;;;;24.35;12.35;;;;;;;0.90;100.00;100919.75;5027820;28;20095;-63
2023/02/06 06:39:11;;;;;;;21.60;11.10;;;;;;;0.94;100.00;100914.13;5025468;28;20025;-63
2023/02/06 06:41:36;;;;;;;21.33;11.07;;;;;;;0.92;100.00;100912.50;5038735;28;20048;-63
2023/02/06 06:44:02;;;;;;;25.27;11.98;;;;;;;0.97;100.00;100907.75;5035306;28;20021;-62
2023/02/06 06:46:28;;;;;;;26.40;12.40;;;;;;;0.90;100.00;100909.09;5022511;28;20038;-63
2023/02/06 06:48:53;;;;;;;26.88;12.35;;;;;;;0.88;100.00;100906.50;5016422;28;20033;-62
2023/02/06 06:51:19;;;;;;;27.63;13.27;;;;;;;0.89;100.00;100900.19;5026272;28;20029;-62
2023/02/06 06:53:44;;;;;;;26.10;12.25;;;;;;;0.89;100.00;100902.88;5042248;28;20503;-62
2023/02/06 06:56:12;;;;;;;24.30;11.80;;;;;;;0.91;100.00;100903.63;5018205;28;20026;-62
2023/02/06 06:58:39;;;;;;;20.83;11.40;;;;;;;0.94;100.00;100894.59;5038411;28;20022;-62
2023/02/06 07:01:05;;;;;;;27.40;12.15;;;;;;;0.94;100.00;100892.78;5043732;28;20115;-62
2023/02/06 07:03:30;;;;;;;27.15;13.35;;;;;;;0.99;100.00;100906.72;5027219;28;20547;-62
2023/02/06 07:05:56;;;;;;;23.85;11.65;;;;;;;1.07;100.00;100914.25;5048857;28;20120;-62
2023/02/06 07:08:22;;;;;;;27.70;12.38;;;;;;;1.06;100.00;100917.88;5044250;28;20032;-62
2023/02/06 07:10:48;;;;;;;27.38;13.00;;;;;;;1.08;100.00;100916.00;5021178;28;20037;-62
2023/02/06 07:13:14;;;;;;;25.92;11.52;;;;;;;1.08;100.00;100921.31;5028771;28;20076;-62
2023/02/06 07:15:41;;;;;;;20.80;9.50;;;;;;;1.05;100.00;100916.19;5039042;28;20029;-62
2023/02/06 07:18:06;;;;;;;21.02;10.25;;;;;;;1.09;100.00;100920.38;5039984;28;20021;-62
2023/02/06 07:20:32;;;;;;;17.92;9.23;;;;;;;1.15;100.00;100924.47;5020979;28;20044;-62
2023/02/06 07:23:00;;;;;;;20.60;10.63;;;;;;;1.16;100.00;100920.88;5020488;28;20034;-62
2023/02/06 07:25:25;;;;;;;21.58;10.70;;;;;;;1.13;100.00;100918.38;5028975;28;20074;-62
2023/02/06 07:27:51;;;;;;;19.10;10.38;;;;;;;1.14;100.00;100930.75;5039822;28;20440;-62
2023/02/06 07:30:16;;;;;;;21.38;10.10;;;;;;;1.16;100.00;100923.53;5040468;28;20057;-62
2023/02/06 07:32:41;;;;;;;21.88;11.43;;;;;;;1.17;100.00;100917.25;5045734;28;20033;-63
2023/02/06 07:35:08;;;;;;;17.23;9.02;;;;;;;1.16;100.00;100915.53;5032039;28;20555;-63
2023/02/06 07:37:34;;;;;;;15.57;7.68;;;;;;;1.15;100.00;100913.81;5026958;28;20089;-63
2023/02/06 07:39:59;;;;;;;15.75;7.78;;;;;;;1.16;100.00;100904.88;5033295;28;20068;-63
2023/02/06 07:42:24;;;;;;;15.63;7.78;;;;;;;1.17;100.00;100901.25;5040887;28;20075;-63
2023/02/06 07:44:50;;;;;;;13.20;7.00;;;;;;;1.18;100.00;100900.28;5014969;28;20021;-63
2023/02/06 07:47:16;;;;;;;15.88;6.75;;;;;;;1.15;100.00;100897.81;5047575;28;20041;-63
2023/02/06 07:49:41;;;;;;;17.58;5.55;;;;;;;1.29;100.00;100896.03;5026327;28;20040;-63
2023/02/06 07:52:06;;;;;;;12.25;5.85;;;;;;;1.33;100.00;100895.84;5044472;28;20032;-63
2023/02/06 07:54:32;;;;;;;10.38;5.10;;;;;;;1.35;100.00;100892.16;5021922;28;20112;-63
2023/02/06 07:56:57;;;;;;;10.30;5.10;;;;;;;1.40;100.00;100897.22;5046909;28;20032;-63
2023/02/06 07:59:23;;;;;;;12.88;5.18;;;;;;;1.37;100.00;100900.06;5030446;28;20025;-63
2023/02/06 08:01:49;;;;;;;12.43;5.70;;;;;;;1.42;100.00;100901.50;5023327;28;20034;-63
2023/02/06 08:04:14;;;;;;;10.38;5.55;;;;;;;1.42;100.00;100904.16;5019686;28;20091;-63
2023/02/06 08:06:41;;;;;;;11.65;4.88;;;;;;;1.46;100.00;100895.00;5032967;28;20065;-63
2023/02/06 08:09:13;;;;;;;9.65;4.32;;;;;;;1.49;100.00;100899.28;5043209;28;20017;-63
2023/02/06 08:11:40;;;;;;;7.07;3.92;;;;;;;1.48;100.00;100897.59;5040458;28;20029;-63
2023/02/06 08:14:05;;;;;;;8.60;4.30;;;;;;;1.47;100.00;100890.56;5021408;28;20473;-63
2023/02/06 08:16:30;;;;;;;8.52;4.25;;;;;;;1.55;100.00;100888.28;5034524;28;20033;-63
2023/02/06 08:18:56;;;;;;;8.43;4.90;;;;;;;1.67;100.00;100883.97;5045427;28;20068;-63
2023/02/06 08:21:23;;;;;;;6.53;3.88;;;;;;;1.71;100.00;100888.19;5021987;28;20018;-63
2023/02/06 08:23:57;;;;;;;9.88;3.90;;;;;;;1.72;100.00;100889.88;5031205;28;20025;-63
2023/02/06 08:26:23;;;;;;;7.15;3.80;;;;;;;1.87;100.00;100888.94;5043143;28;20029;-63
2023/02/06 08:28:50;;;;;;;10.35;4.45;;;;;;;1.85;100.00;100889.97;5019162;28;20029;-63
2023/02/06 08:31:21;;;;;;;8.90;4.53;;;;;;;1.92;100.00;100896.66;5029696;28;20029;-63
2023/02/06 08:33:48;;;;;;;12.95;5.28;;;;;;;2.00;100.00;100893.50;5019679;28;20501;-63
2023/02/06 08:36:15;;;;;;;11.30;4.50;;;;;;;2.11;100.00;100885.66;5028491;28;20018;-63
2023/02/06 08:38:41;;;;;;;7.22;4.40;;;;;;;2.14;100.00;100891.66;5026228;28;20032;-63
2023/02/06 08:41:33;;;;;;;8.52;3.95;;;;;;;2.34;100.00;100878.84;5026823;28;20028;-63
2023/02/06 08:44:00;;;;;;;7.90;4.00;;;;;;;2.44;100.00;100881.75;5022231;28;20027;-61
2023/02/06 08:46:28;;;;;;;9.70;4.15;;;;;;;2.53;100.00;100883.84;5014646;28;20026;-61
2023/02/06 08:48:55;;;;;;;13.07;5.05;;;;;;;2.55;100.00;100885.44;5034775;28;20116;-61
2023/02/06 08:51:21;;;;;;;7.38;4.05;;;;;;;2.51;100.00;100891.09;5029158;28;20033;-61
2023/02/06 08:53:47;;;;;;;12.77;4.25;;;;;;;2.43;100.00;100896.94;5038143;28;20033;-62
2023/02/06 08:56:13;;;;;;;11.10;4.68;;;;;;;2.34;100.00;100898.41;5035610;28;20096;-61
2023/02/06 08:58:39;;;;;;;9.02;5.25;;;;;;;2.25;100.00;100893.63;5025421;28;20029;-61
2023/02/06 09:01:13;;;;;;;9.55;5.43;;;;;;;2.33;100.00;100895.81;5037489;28;20033;-63
2023/02/06 09:03:40;;;;;;;8.27;5.20;;;;;;;2.33;100.00;100896.69;5042610;28;20025;-62
2023/02/06 09:06:06;;;;;;;11.52;4.95;;;;;;;2.45;100.00;100888.84;5040290;28;20025;-61
2023/02/06 09:08:32;;;;;;;12.82;6.80;;;;;;;2.62;100.00;100885.91;5021617;28;20041;-61
2023/02/06 09:11:14;;;;;;;11.35;6.82;;;;;;;2.70;100.00;100890.72;5026776;28;20026;-62
2023/02/06 09:13:40;;;;;;;19.13;9.10;;;;;;;2.82;100.00;100896.13;5025658;28;20033;-61
2023/02/06 09:16:05;;;;;;;18.65;9.65;;;;;;;2.93;100.00;100889.22;5020241;28;20036;-66
2023/02/06 09:18:31;;;;;;;19.55;10.30;;;;;;;3.06;100.00;100887.41;5016988;28;20026;-62
2023/02/06 09:21:14;;;;;;;19.38;10.30;;;;;;;3.10;100.00;100888.09;5022918;28;20038;-67
2023/02/06 09:23:45;;;;;;;19.25;10.13;;;;;;;3.27;100.00;100887.78;5030011;28;20106;-62
2023/02/06 09:26:12;;;;;;;18.83;10.07;;;;;;;3.38;100.00;100887.91;5023595;28;20037;-62
2023/02/06 09:28:38;;;;;;;17.63;9.73;;;;;;;3.56;100.00;100876.88;5023843;28;20029;-62
2023/02/06 09:31:06;;;;;;;20.63;10.27;;;;;;;3.67;100.00;100869.81;5028996;28;20103;-61
2023/02/06 09:33:31;;;;;;;17.33;9.77;;;;;;;3.71;100.00;100865.94;5023754;28;20026;-62
2023/02/06 09:36:05;;;;;;;15.05;8.75;;;;;;;3.70;100.00;100858.88;5018624;28;20044;-62
2023/02/06 09:38:31;;;;;;;19.05;9.20;;;;;;;3.69;100.00;100851.84;5035221;28;20071;-62
2023/02/06 09:40:59;;;;;;;16.88;10.13;;;;;;;3.63;100.00;100852.25;5024201;28;20025;-62
2023/02/06 09:43:25;;;;;;;17.45;8.73;;;;;;;3.68;100.00;100851.94;5038162;28;20033;-62
2023/02/06 09:45:57;;;;;;;19.90;11.15;;;;;;;3.57;100.00;100854.50;5025271;28;20038;-62
2023/02/06 09:48:26;;;;;;;18.48;10.95;;;;;;;3.74;100.00;100846.13;5029339;28;20121;-61
2023/02/06 09:51:06;;;;;;;22.40;10.40;;;;;;;3.60;100.00;100840.91;5042449;28;20033;-61
2023/02/06 09:53:38;;;;;;;22.92;11.63;;;;;;;3.89;100.00;100842.34;5025283;28;20033;-62
2023/02/06 09:56:06;;;;;;;45.58;19.73;;;;;;;4.12;100.00;100838.03;5015785;28;20021;-61
2023/02/06 09:59:09;;;;;;;23.43;13.37;;;;;;;4.14;100.00;100833.41;5044120;28;20030;-61
2023/02/06 10:02:01;;;;;;;21.10;11.65;;;;;;;4.53;100.00;100827.88;5019549;28;20268;-62
2023/02/06 10:04:55;;;;;;;18.25;9.77;;;;;;;4.57;100.00;100827.53;4973704;28;20041;-62
2023/02/06 10:07:30;;;;;;;18.55;9.25;;;;;;;4.32;100.00;100820.50;5024408;28;20040;-61
2023/02/06 10:10:02;;;;;;;17.45;10.02;;;;;;;4.73;100.00;100812.97;5033634;28;20032;-61
2023/02/06 10:12:34;;;;;;;21.50;10.75;;;;;;;4.96;100.00;100820.13;5022438;28;20056;-61
2023/02/06 10:15:28;;;;;;;19.42;10.55;;;;;;;5.35;100.00;100811.81;5032961;28;20593;-62
2023/02/06 10:17:56;;;;;;;15.52;8.40;;;;;;;5.57;100.00;100805.59;5028317;28;20029;-61
2023/02/06 10:20:57;;;;;;;10.73;5.40;;;;;;;5.60;100.00;100799.97;5040557;28;20063;-61
2023/02/06 10:23:32;;;;;;;6.97;4.13;;;;;;;5.63;100.00;100797.03;5018236;28;20037;-61
2023/02/06 10:26:03;;;;;;;7.80;4.32;;;;;;;6.15;100.00;100784.78;5020755;28;20033;-61
2023/02/06 10:28:30;;;;;;;8.68;4.82;;;;;;;6.75;100.00;100790.53;5025344;28;20029;-62
2023/02/06 10:31:17;;;;;;;5.78;2.88;;;;;;;6.74;100.00;100789.69;5026331;28;20448;-62
2023/02/06 10:34:20;;;;;;;6.50;4.13;;;;;;;6.95;100.00;100783.47;5043246;28;20040;-61
2023/02/06 10:36:51;;;;;;;4.28;2.60;;;;;;;6.95;100.00;100784.31;5021654;28;20026;-64
2023/02/06 10:39:40;;;;;;;4.30;2.55;;;;;;;5.99;100.00;100795.06;5049774;28;20144;-63
2023/02/06 10:43:00;;;;;;;5.22;2.65;;;;;;;5.51;100.00;100801.56;5043437;28;20120;-62
2023/02/06 10:45:40;;;;;;;5.55;3.05;;;;;;;5.42;100.00;100795.09;4949056;28;20059;-62
2023/02/06 10:48:30;;;;;;;16.05;2.95;;;;;;;5.24;100.00;100788.50;5021817;28;20394;-62
2023/02/06 10:51:10;;;;;;;5.25;3.17;;;;;;;5.59;100.00;100790.22;5019174;28;20037;-62
2023/02/06 10:53:44;;;;;;;7.50;3.50;;;;;;;5.28;100.00;100784.56;5025733;28;20539;-61
2023/02/06 10:56:13;;;;;;;5.50;3.20;;;;;;;5.22;100.00;100785.91;5022167;28;20545;-62
2023/02/06 10:58:52;;;;;;;7.15;4.03;;;;;;;4.98;100.00;100787.84;5041243;28;20052;-62
2023/02/06 11:01:19;;;;;;;6.57;4.00;;;;;;;4.82;100.00;100790.81;5042857;28;20021;-62
2023/02/06 11:03:54;;;;;;;7.88;3.40;;;;;;;4.69;100.00;100782.88;5024956;28;20112;-62
2023/02/06 11:06:24;;;;;;;7.82;3.95;;;;;;;4.61;100.00;100778.09;5028019;28;20029;-62
2023/02/06 11:08:50;;;;;;;7.70;4.32;;;;;;;4.66;100.00;100771.50;5027852;28;20041;-62
2023/02/06 11:11:18;;;;;;;9.63;4.00;;;;;;;4.71;100.00;100764.81;5025192;28;20441;-62
2023/02/06 11:13:45;;;;;;;10.05;3.33;;;;;;;4.65;100.00;100776.03;5024461;28;20051;-62
2023/02/06 11:16:15;;;;;;;8.55;4.30;;;;;;;4.59;100.00;100769.31;5018401;28;20049;-62
2023/02/06 11:18:44;;;;;;;8.18;4.43;;;;;;;4.55;100.00;100767.81;5039750;28;20029;-62
2023/02/06 11:21:11;;;;;;;6.88;3.95;;;;;;;4.63;100.00;100764.56;5025760;28;21008;-62